Time;durP1;ratioP1;P1;durP2;ratioP2;P2;SDS_P1;SDS_P2;PMS_P1;PMS_P2;Temp;Humidity;BMP_temperature;BMP_pressure;BME280_temperature;BME280_humidity;BME280_pressure;Samples;Min_cycle;Max_cycle;Signal;HPM_P1;HPM_P2
2021/06/29 00:02:07;;;;;;;0.00;0.00;;;16.70;99.90;;;;;;4963558;28;20245;-70
2021/06/29 00:04:34;;;;;;;0.00;0.00;;;16.70;99.90;;;;;;4962919;28;20668;-75
2021/06/29 00:07:01;;;;;;;0.00;0.00;;;16.70;99.90;;;;;;4965233;28;20206;-72
2021/06/29 00:09:28;;;;;;;0.00;0.00;;;16.70;99.90;;;;;;4965642;28;20226;-74
2021/06/29 00:11:55;;;;;;;0.00;0.00;;;16.70;99.90;;;;;;4964127;28;20944;-75
2021/06/29 00:14:22;;;;;;;0.00;0.00;;;16.70;99.90;;;;;;4961334;28;20210;-69
2021/06/29 00:16:50;;;;;;;0.00;0.00;;;16.60;99.90;;;;;;4966040;28;20218;-72
2021/06/29 00:19:18;;;;;;;0.00;0.00;;;16.70;99.90;;;;;;4962536;28;20293;-75
2021/06/29 00:21:45;;;;;;;0.00;0.00;;;16.70;99.90;;;;;;4961740;28;20218;-69
2021/06/29 00:24:12;;;;;;;0.00;0.00;;;16.70;99.90;;;;;;4960479;28;20347;-75
2021/06/29 00:26:39;;;;;;;0.00;0.00;;;16.70;99.90;;;;;;4957552;28;20218;-68
2021/06/29 00:29:06;;;;;;;0.00;0.00;;;16.70;99.90;;;;;;4956690;28;20226;-71
2021/06/29 00:31:33;;;;;;;0.00;0.00;;;16.70;99.90;;;;;;4959503;28;20206;-69
2021/06/29 00:34:01;;;;;;;0.97;0.97;;;16.70;99.90;;;;;;4962178;28;20210;-68
2021/06/29 00:36:28;;;;;;;0.00;0.00;;;16.70;99.90;;;;;;4957659;28;20209;-73
2021/06/29 00:38:55;;;;;;;0.00;0.00;;;16.70;99.90;;;;;;4955685;28;20217;-75
2021/06/29 00:41:22;;;;;;;0.00;0.00;;;16.70;99.90;;;;;;4954358;28;20257;-70
2021/06/29 00:43:50;;;;;;;0.00;0.00;;;16.70;99.90;;;;;;4958256;28;20206;-71
2021/06/29 00:46:18;;;;;;;0.00;0.00;;;16.70;99.90;;;;;;4957073;28;20210;-73
2021/06/29 00:48:46;;;;;;;0.00;0.00;;;16.70;99.90;;;;;;4957572;28;20222;-72
2021/06/29 00:51:15;;;;;;;0.00;0.00;;;16.70;99.90;;;;;;4957252;28;20260;-76
2021/06/29 00:53:43;;;;;;;0.00;0.00;;;16.70;99.90;;;;;;4956665;28;20217;-71
2021/06/29 00:56:13;;;;;;;0.80;0.80;;;16.70;99.90;;;;;;4960883;28;20230;-72
2021/06/29 00:58:41;;;;;;;2.07;0.60;;;16.70;99.90;;;;;;4954250;28;20206;-74
2021/06/29 01:01:08;;;;;;;0.00;0.00;;;16.70;99.90;;;;;;4958578;28;20279;-76
2021/06/29 01:03:35;;;;;;;8.60;2.73;;;16.60;99.90;;;;;;4957730;28;20215;-72
2021/06/29 01:06:02;;;;;;;0.00;0.00;;;16.50;99.90;;;;;;4957084;28;20214;-69
2021/06/29 01:08:31;;;;;;;1.10;1.10;;;16.50;99.90;;;;;;4954605;28;20918;-77
2021/06/29 01:10:58;;;;;;;0.17;0.17;;;16.40;99.90;;;;;;4956161;28;20210;-74
2021/06/29 01:13:30;;;;;;;0.30;0.30;;;16.40;99.90;;;;;;4953986;28;20608;-76
2021/06/29 01:15:58;;;;;;;0.70;0.70;;;16.40;99.90;;;;;;4952399;28;20243;-72
2021/06/29 01:18:25;;;;;;;0.10;0.10;;;16.40;99.90;;;;;;4951628;28;20210;-75
2021/06/29 01:20:54;;;;;;;2.60;2.33;;;16.40;99.90;;;;;;4962368;28;20261;-71
2021/06/29 01:23:23;;;;;;;0.73;0.50;;;16.30;99.90;;;;;;4960211;28;20214;-73
2021/06/29 01:26:05;;;;;;;0.00;0.00;;;16.30;99.90;;;;;;4959702;28;20665;-73
2021/06/29 01:28:36;;;;;;;0.00;0.00;;;16.30;99.90;;;;;;4953387;28;20628;-74
2021/06/29 01:31:06;;;;;;;0.00;0.00;;;16.30;99.90;;;;;;4954877;28;20234;-75
2021/06/29 01:33:32;;;;;;;0.00;0.00;;;16.30;99.90;;;;;;4952170;28;20204;-69
2021/06/29 01:36:00;;;;;;;0.00;0.00;;;16.40;99.90;;;;;;4951651;28;20285;-71
2021/06/29 01:38:27;;;;;;;0.00;0.00;;;16.30;99.90;;;;;;4951157;28;20214;-75
2021/06/29 01:40:55;;;;;;;0.00;0.00;;;16.40;99.90;;;;;;4956147;28;20214;-70
2021/06/29 01:43:24;;;;;;;0.00;0.00;;;16.40;99.90;;;;;;4954616;28;20202;-72
2021/06/29 01:45:53;;;;;;;0.10;0.10;;;16.40;99.90;;;;;;4959441;28;20203;-69
2021/06/29 01:48:23;;;;;;;0.00;0.00;;;16.40;99.90;;;;;;4954038;28;20220;-77
2021/06/29 01:50:50;;;;;;;0.50;0.50;;;16.40;99.90;;;;;;4954410;28;20257;-74
2021/06/29 01:53:19;;;;;;;0.00;0.00;;;16.30;99.90;;;;;;4953301;28;20206;-74
2021/06/29 01:55:47;;;;;;;1.27;1.17;;;16.30;99.90;;;;;;4954884;28;20658;-73
2021/06/29 01:58:20;;;;;;;3.07;1.57;;;16.30;99.90;;;;;;4958212;28;20202;-74
2021/06/29 02:00:47;;;;;;;0.00;0.00;;;16.30;99.90;;;;;;4957838;28;20264;-76
2021/06/29 02:03:14;;;;;;;0.00;0.00;;;16.30;99.90;;;;;;4950567;28;21106;-72
2021/06/29 02:05:41;;;;;;;0.73;0.73;;;16.30;99.90;;;;;;4954329;28;20257;-73
2021/06/29 02:08:08;;;;;;;0.00;0.00;;;16.30;99.90;;;;;;4958787;28;20210;-74
2021/06/29 02:10:37;;;;;;;0.00;0.00;;;16.40;99.90;;;;;;4960697;28;20230;-71
2021/06/29 02:13:04;;;;;;;3.20;0.67;;;16.30;99.90;;;;;;4960767;28;20229;-68
2021/06/29 02:15:31;;;;;;;2.27;2.07;;;16.30;99.90;;;;;;4960904;28;20207;-72
2021/06/29 02:17:59;;;;;;;0.00;0.00;;;16.30;99.90;;;;;;4957337;28;20301;-74
2021/06/29 02:20:26;;;;;;;0.00;0.00;;;16.30;99.90;;;;;;4957197;28;20206;-71
2021/06/29 02:22:53;;;;;;;0.00;0.00;;;16.30;99.90;;;;;;4951693;28;20222;-75
2021/06/29 02:25:20;;;;;;;0.00;0.00;;;16.30;99.90;;;;;;4956031;28;20583;-75
2021/06/29 02:27:49;;;;;;;0.00;0.00;;;16.40;99.90;;;;;;4951667;28;20254;-73
2021/06/29 02:30:16;;;;;;;0.00;0.00;;;16.40;99.90;;;;;;4955357;28;20316;-76
2021/06/29 02:32:44;;;;;;;0.00;0.00;;;16.40;99.90;;;;;;4956073;28;20333;-72
2021/06/29 02:35:11;;;;;;;0.00;0.00;;;16.50;99.90;;;;;;4955613;28;20203;-70
2021/06/29 02:37:38;;;;;;;0.00;0.00;;;16.50;99.90;;;;;;4956424;28;21094;-70
2021/06/29 02:40:08;;;;;;;0.00;0.00;;;16.50;99.90;;;;;;4952725;28;20868;-74
2021/06/29 02:42:35;;;;;;;0.40;0.27;;;16.40;99.90;;;;;;4953485;28;20206;-72
2021/06/29 02:45:06;;;;;;;0.00;0.00;;;16.50;99.90;;;;;;4953832;28;20576;-74
2021/06/29 02:47:34;;;;;;;2.20;2.00;;;16.50;99.90;;;;;;4954792;28;20206;-73
2021/06/29 02:50:02;;;;;;;0.30;0.30;;;16.40;99.90;;;;;;4953266;28;20867;-74
2021/06/29 02:52:29;;;;;;;0.00;0.00;;;16.50;99.90;;;;;;4952532;28;20211;-75
2021/06/29 02:54:56;;;;;;;0.00;0.00;;;16.40;99.90;;;;;;4955491;28;20629;-76
2021/06/29 02:57:23;;;;;;;0.00;0.00;;;16.50;99.90;;;;;;4954920;28;20336;-73
2021/06/29 02:59:50;;;;;;;0.00;0.00;;;16.50;99.90;;;;;;4953554;28;20339;-71
2021/06/29 03:02:18;;;;;;;0.00;0.00;;;16.50;99.90;;;;;;4953687;28;20206;-74
2021/06/29 03:04:45;;;;;;;0.00;0.00;;;16.50;99.90;;;;;;4954377;28;20273;-74
2021/06/29 03:07:12;;;;;;;0.00;0.00;;;16.50;99.90;;;;;;4957059;28;20722;-76
2021/06/29 03:09:39;;;;;;;0.00;0.00;;;16.50;99.90;;;;;;4958370;28;20268;-73
2021/06/29 03:12:08;;;;;;;0.00;0.00;;;16.60;99.90;;;;;;4958552;28;20221;-74
2021/06/29 03:14:36;;;;;;;0.00;0.00;;;16.60;99.90;;;;;;4958123;28;20258;-69
2021/06/29 03:17:04;;;;;;;0.00;0.00;;;16.60;99.90;;;;;;4962014;28;20668;-72
2021/06/29 03:19:32;;;;;;;0.10;0.10;;;16.60;99.90;;;;;;4960225;28;20339;-71
2021/06/29 03:22:00;;;;;;;0.53;0.53;;;16.60;99.90;;;;;;4965759;28;20265;-76
2021/06/29 03:24:27;;;;;;;0.00;0.00;;;16.50;99.90;;;;;;4960011;28;20214;-72
2021/06/29 03:26:54;;;;;;;5.30;0.57;;;16.50;99.90;;;;;;4966485;28;20211;-74
2021/06/29 03:29:22;;;;;;;0.00;0.00;;;16.50;99.90;;;;;;4959624;28;20280;-74
2021/06/29 03:31:49;;;;;;;0.00;0.00;;;16.50;99.90;;;;;;4958016;28;20665;-74
2021/06/29 03:34:16;;;;;;;0.00;0.00;;;16.50;99.90;;;;;;4958674;28;20604;-75
2021/06/29 03:36:44;;;;;;;0.00;0.00;;;16.50;99.90;;;;;;4960214;28;20198;-72
2021/06/29 03:39:11;;;;;;;0.00;0.00;;;16.50;99.90;;;;;;4955661;28;20221;-73
2021/06/29 03:41:38;;;;;;;0.10;0.10;;;16.50;99.90;;;;;;4958424;28;20210;-72
2021/06/29 03:44:06;;;;;;;0.00;0.00;;;16.50;99.90;;;;;;4955791;28;20206;-74
2021/06/29 03:46:33;;;;;;;0.00;0.00;;;16.50;99.90;;;;;;4960252;28;20206;-75
2021/06/29 03:49:00;;;;;;;0.00;0.00;;;16.50;99.90;;;;;;4957405;28;20341;-71
2021/06/29 03:51:27;;;;;;;0.00;0.00;;;16.50;99.90;;;;;;4960462;28;20206;-74
2021/06/29 03:53:55;;;;;;;0.00;0.00;;;16.50;99.90;;;;;;4962067;28;20233;-72
2021/06/29 03:56:28;;;;;;;0.00;0.00;;;16.50;99.90;;;;;;4959353;28;20600;-75
2021/06/29 03:58:57;;;;;;;0.00;0.00;;;16.60;99.90;;;;;;4961669;28;20296;-69
2021/06/29 04:01:24;;;;;;;0.00;0.00;;;16.60;99.90;;;;;;4960070;28;20215;-75
2021/06/29 04:03:54;;;;;;;0.00;0.00;;;16.60;99.90;;;;;;4962136;28;20746;-75
2021/06/29 04:06:23;;;;;;;0.00;0.00;;;16.60;99.90;;;;;;4962693;28;20213;-76
2021/06/29 04:08:50;;;;;;;0.00;0.00;;;16.60;99.90;;;;;;4959856;28;20213;-71
2021/06/29 04:11:18;;;;;;;0.00;0.00;;;16.60;99.90;;;;;;4960091;28;20222;-74
2021/06/29 04:13:45;;;;;;;0.00;0.00;;;16.60;99.90;;;;;;4965728;28;20202;-68
2021/06/29 04:16:13;;;;;;;0.00;0.00;;;16.60;99.90;;;;;;4958103;28;20198;-68
2021/06/29 04:18:40;;;;;;;0.03;0.03;;;16.60;99.90;;;;;;4957155;28;20742;-72
2021/06/29 04:21:07;;;;;;;0.00;0.00;;;16.60;99.90;;;;;;4961643;28;20209;-72
2021/06/29 04:23:34;;;;;;;0.00;0.00;;;16.60;99.90;;;;;;4957644;28;20619;-71
2021/06/29 04:26:01;;;;;;;0.00;0.00;;;16.60;99.90;;;;;;4959185;28;20230;-70
2021/06/29 04:28:30;;;;;;;0.00;0.00;;;16.50;99.90;;;;;;4959545;28;20285;-74
2021/06/29 04:30:57;;;;;;;0.00;0.00;;;16.60;99.90;;;;;;4960456;28;20226;-71
2021/06/29 04:33:24;;;;;;;0.00;0.00;;;16.60;99.90;;;;;;4958192;28;20377;-70
2021/06/29 04:35:51;;;;;;;0.00;0.00;;;16.50;99.90;;;;;;4959982;28;20214;-73
2021/06/29 04:38:18;;;;;;;0.00;0.00;;;16.50;99.90;;;;;;4958589;28;20210;-72
2021/06/29 04:40:45;;;;;;;0.00;0.00;;;16.50;99.90;;;;;;4960993;28;20211;-68
2021/06/29 04:43:12;;;;;;;0.00;0.00;;;16.60;99.90;;;;;;4960722;28;20726;-68
2021/06/29 04:45:41;;;;;;;0.00;0.00;;;16.60;99.90;;;;;;4960090;28;20668;-71
2021/06/29 04:48:09;;;;;;;0.00;0.00;;;16.60;99.90;;;;;;4964469;28;20257;-69
2021/06/29 04:50:36;;;;;;;0.00;0.00;;;16.60;99.90;;;;;;4972546;28;20586;-76
2021/06/29 04:53:03;;;;;;;0.00;0.00;;;16.60;99.90;;;;;;4963953;28;20249;-71
2021/06/29 04:55:33;;;;;;;0.00;0.00;;;16.60;99.90;;;;;;4958267;28;21986;-73
2021/06/29 04:58:00;;;;;;;0.00;0.00;;;16.60;99.90;;;;;;4965811;28;20222;-71
2021/06/29 05:00:26;;;;;;;0.30;0.30;;;16.70;99.90;;;;;;4966982;28;20203;-70
2021/06/29 05:02:55;;;;;;;0.00;0.00;;;16.70;99.90;;;;;;4962091;28;20214;-72
2021/06/29 05:05:22;;;;;;;0.00;0.00;;;16.70;99.90;;;;;;4958896;28;20269;-71
2021/06/29 05:07:49;;;;;;;0.00;0.00;;;16.70;99.90;;;;;;4961150;28;20210;-71
2021/06/29 05:10:16;;;;;;;0.00;0.00;;;16.70;99.90;;;;;;4965474;28;20226;-75
2021/06/29 05:12:43;;;;;;;0.00;0.00;;;16.80;99.90;;;;;;4966233;28;20686;-74
2021/06/29 05:15:11;;;;;;;0.00;0.00;;;16.80;99.90;;;;;;4959888;28;20566;-69
2021/06/29 05:17:38;;;;;;;0.00;0.00;;;16.80;99.90;;;;;;4955745;28;20230;-71
2021/06/29 05:20:07;;;;;;;0.00;0.00;;;16.90;99.90;;;;;;4955293;28;20210;-72
2021/06/29 05:22:34;;;;;;;0.00;0.00;;;16.90;99.90;;;;;;4956300;28;20214;-74
2021/06/29 05:25:03;;;;;;;0.00;0.00;;;16.90;99.90;;;;;;4955817;28;20218;-73
2021/06/29 05:27:30;;;;;;;0.00;0.00;;;16.90;99.90;;;;;;4955722;28;20199;-75
2021/06/29 05:29:58;;;;;;;4.47;1.70;;;16.90;99.90;;;;;;4954990;28;20230;-69
2021/06/29 05:32:25;;;;;;;0.00;0.00;;;16.90;99.90;;;;;;4959161;28;20245;-70
2021/06/29 05:34:52;;;;;;;0.00;0.00;;;16.90;99.90;;;;;;4956546;28;20210;-70
2021/06/29 05:37:20;;;;;;;0.00;0.00;;;17.00;99.90;;;;;;4954565;28;20210;-73
2021/06/29 05:39:47;;;;;;;0.00;0.00;;;17.00;99.90;;;;;;4954772;28;20202;-70
2021/06/29 05:42:15;;;;;;;0.00;0.00;;;17.00;99.90;;;;;;4959171;28;20966;-73
2021/06/29 05:44:42;;;;;;;0.00;0.00;;;17.00;99.90;;;;;;4957487;28;20205;-74
2021/06/29 05:47:09;;;;;;;0.00;0.00;;;17.00;99.90;;;;;;4953559;28;20210;-74
2021/06/29 05:49:36;;;;;;;0.00;0.00;;;17.00;99.90;;;;;;4955735;28;20218;-72
2021/06/29 05:52:05;;;;;;;0.00;0.00;;;17.00;99.90;;;;;;4956678;28;20211;-73
2021/06/29 05:54:34;;;;;;;0.00;0.00;;;17.00;99.90;;;;;;4956268;28;20199;-70
2021/06/29 05:57:01;;;;;;;0.00;0.00;;;17.00;99.90;;;;;;4953962;28;20241;-74
2021/06/29 05:59:28;;;;;;;0.00;0.00;;;17.00;99.90;;;;;;4955860;28;20672;-73
2021/06/29 06:01:55;;;;;;;0.00;0.00;;;17.10;99.90;;;;;;4951215;28;20234;-73
2021/06/29 06:04:22;;;;;;;0.00;0.00;;;17.10;99.90;;;;;;4951110;28;20207;-75
2021/06/29 06:06:49;;;;;;;0.00;0.00;;;17.20;99.90;;;;;;4957657;28;20285;-73
2021/06/29 06:09:16;;;;;;;0.00;0.00;;;17.20;99.90;;;;;;4954464;28;20218;-75
2021/06/29 06:11:44;;;;;;;0.00;0.00;;;17.20;99.90;;;;;;4956740;28;20574;-74
2021/06/29 06:14:11;;;;;;;0.00;0.00;;;17.30;99.90;;;;;;4958758;28;20268;-71
2021/06/29 06:16:38;;;;;;;0.00;0.00;;;17.30;99.90;;;;;;4960947;28;20203;-72
2021/06/29 06:19:05;;;;;;;0.00;0.00;;;17.30;99.90;;;;;;4964525;28;20236;-74
2021/06/29 06:21:33;;;;;;;0.00;0.00;;;17.40;99.90;;;;;;4957942;28;20867;-72
2021/06/29 06:23:59;;;;;;;0.00;0.00;;;17.40;99.90;;;;;;4958090;28;20222;-69
2021/06/29 06:26:27;;;;;;;0.00;0.00;;;17.40;99.90;;;;;;4957528;28;20202;-75
2021/06/29 06:28:55;;;;;;;0.00;0.00;;;17.40;99.90;;;;;;4958785;28;20206;-68
2021/06/29 06:31:22;;;;;;;0.00;0.00;;;17.50;99.90;;;;;;4962666;28;20238;-75
2021/06/29 06:33:49;;;;;;;0.00;0.00;;;17.60;99.90;;;;;;4956362;28;20205;-70
2021/06/29 06:36:16;;;;;;;0.00;0.00;;;17.60;99.90;;;;;;4954968;28;20263;-71
2021/06/29 06:38:43;;;;;;;0.00;0.00;;;17.60;99.90;;;;;;4955244;28;20217;-69
2021/06/29 06:41:13;;;;;;;0.00;0.00;;;17.70;99.90;;;;;;4954911;28;20218;-73
2021/06/29 06:43:41;;;;;;;0.00;0.00;;;17.70;99.90;;;;;;4956482;28;20199;-68
2021/06/29 06:46:09;;;;;;;0.00;0.00;;;17.80;99.90;;;;;;4963369;28;20195;-74
2021/06/29 06:48:37;;;;;;;0.00;0.00;;;17.80;99.90;;;;;;4960008;28;20600;-73
2021/06/29 06:51:04;;;;;;;0.00;0.00;;;17.90;99.90;;;;;;4959420;28;20512;-71
2021/06/29 06:53:31;;;;;;;0.00;0.00;;;18.00;99.90;;;;;;4959699;28;20684;-78
2021/06/29 06:55:58;;;;;;;0.00;0.00;;;18.00;99.90;;;;;;4957143;28;20222;-72
2021/06/29 06:58:26;;;;;;;0.00;0.00;;;18.00;99.90;;;;;;4959766;28;20202;-73
2021/06/29 07:00:53;;;;;;;0.00;0.00;;;18.10;99.90;;;;;;4960746;28;20362;-68
2021/06/29 07:03:21;;;;;;;0.00;0.00;;;18.10;99.90;;;;;;4958403;28;20203;-69
2021/06/29 07:05:48;;;;;;;0.00;0.00;;;18.20;99.90;;;;;;4958548;28;20206;-70
2021/06/29 07:08:15;;;;;;;0.00;0.00;;;18.10;99.90;;;;;;4957469;28;20266;-73
2021/06/29 07:10:43;;;;;;;0.00;0.00;;;18.20;99.90;;;;;;4956312;28;20222;-73
2021/06/29 07:13:10;;;;;;;1.50;1.30;;;18.40;99.90;;;;;;4957069;28;20284;-74
2021/06/29 07:15:37;;;;;;;0.00;0.00;;;18.70;99.90;;;;;;4960776;28;20301;-75
2021/06/29 07:18:04;;;;;;;0.00;0.00;;;19.00;99.90;;;;;;4957376;28;20210;-72
2021/06/29 07:20:33;;;;;;;0.00;0.00;;;19.10;99.90;;;;;;4958916;28;20206;-70
2021/06/29 07:22:59;;;;;;;0.00;0.00;;;19.10;99.90;;;;;;4955011;28;22623;-71
2021/06/29 07:25:27;;;;;;;0.00;0.00;;;19.30;99.90;;;;;;4959716;28;20280;-72
2021/06/29 07:27:54;;;;;;;0.00;0.00;;;19.30;99.90;;;;;;4959753;28;20206;-68
2021/06/29 07:30:21;;;;;;;0.00;0.00;;;19.80;99.90;;;;;;4955642;28;20214;-73
2021/06/29 07:32:53;;;;;;;0.03;0.03;;;20.20;99.90;;;;;;4956082;28;20206;-73
2021/06/29 07:35:20;;;;;;;0.00;0.00;;;21.00;99.90;;;;;;4958289;28;20214;-77
2021/06/29 07:37:49;;;;;;;0.00;0.00;;;21.50;99.90;;;;;;4957945;28;20198;-77
2021/06/29 07:40:16;;;;;;;0.00;0.00;;;21.60;99.90;;;;;;4953395;28;20630;-73
2021/06/29 07:42:43;;;;;;;0.00;0.00;;;21.50;99.90;;;;;;4954813;28;20341;-71
2021/06/29 07:45:12;;;;;;;0.17;0.17;;;21.20;99.90;;;;;;4964222;28;20218;-70
2021/06/29 07:47:39;;;;;;;0.10;0.10;;;21.10;99.90;;;;;;4959019;28;20207;-72
2021/06/29 07:50:08;;;;;;;0.00;0.00;;;21.00;99.90;;;;;;4958629;28;20215;-73
2021/06/29 07:52:36;;;;;;;1.60;1.55;;;20.90;99.90;;;;;;4961702;28;20234;-73
2021/06/29 07:55:05;;;;;;;0.65;0.35;;;20.50;99.90;;;;;;4961133;28;20207;-76
2021/06/29 07:57:32;;;;;;;0.00;0.00;;;20.30;99.90;;;;;;4964100;28;20221;-74
2021/06/29 07:59:59;;;;;;;0.17;0.17;;;20.10;99.90;;;;;;4971886;28;20203;-75
2021/06/29 08:02:26;;;;;;;0.00;0.00;;;20.10;99.90;;;;;;4963005;28;20225;-71
2021/06/29 08:04:53;;;;;;;0.00;0.00;;;20.00;99.90;;;;;;4973896;28;20209;-75
2021/06/29 08:07:20;;;;;;;0.00;0.00;;;20.00;99.90;;;;;;4965485;28;20214;-74
2021/06/29 08:09:47;;;;;;;0.00;0.00;;;20.00;99.90;;;;;;4965554;28;20213;-74
2021/06/29 08:12:16;;;;;;;0.25;0.25;;;19.90;99.90;;;;;;4970462;28;20233;-74
2021/06/29 08:14:43;;;;;;;0.00;0.00;;;19.80;99.90;;;;;;4970760;28;20273;-75
2021/06/29 08:17:10;;;;;;;0.00;0.00;;;19.60;99.90;;;;;;4962141;28;20207;-76
2021/06/29 08:19:37;;;;;;;0.00;0.00;;;19.50;99.90;;;;;;4959630;28;20202;-76
2021/06/29 08:22:05;;;;;;;0.15;0.15;;;19.50;99.90;;;;;;4959741;28;20229;-74
2021/06/29 08:24:32;;;;;;;0.00;0.00;;;19.50;99.90;;;;;;4971420;28;20575;-74
2021/06/29 08:26:59;;;;;;;0.10;0.10;;;19.60;99.90;;;;;;4958635;28;20202;-75
2021/06/29 08:29:28;;;;;;;0.00;0.00;;;19.70;99.90;;;;;;4984645;28;20202;-73
2021/06/29 08:31:55;;;;;;;0.00;0.00;;;19.70;99.90;;;;;;4973208;28;20319;-74
2021/06/29 08:34:22;;;;;;;0.17;0.17;;;19.70;99.90;;;;;;4971085;28;20210;-75
2021/06/29 08:36:49;;;;;;;0.25;0.25;;;19.60;99.90;;;;;;4969756;28;20203;-74
2021/06/29 08:39:16;;;;;;;0.00;0.00;;;19.60;99.90;;;;;;4971465;28;20249;-74
2021/06/29 08:41:44;;;;;;;0.00;0.00;;;19.70;99.90;;;;;;4969422;28;20202;-74
2021/06/29 08:44:11;;;;;;;0.00;0.00;;;19.80;99.90;;;;;;4969289;28;20660;-73
2021/06/29 08:46:40;;;;;;;0.00;0.00;;;20.00;99.90;;;;;;4963706;28;20648;-74
2021/06/29 08:49:07;;;;;;;0.10;0.10;;;20.00;99.90;;;;;;4970399;28;20248;-74
2021/06/29 08:51:35;;;;;;;0.80;0.80;;;20.10;99.90;;;;;;4971912;28;20238;-72
2021/06/29 08:54:03;;;;;;;0.00;0.00;;;19.90;99.90;;;;;;4955950;28;20203;-74
2021/06/29 08:56:31;;;;;;;0.00;0.00;;;19.70;99.90;;;;;;4968791;28;20746;-73
2021/06/29 08:58:58;;;;;;;0.00;0.00;;;19.80;99.90;;;;;;4971706;28;20202;-73
2021/06/29 09:01:26;;;;;;;0.00;0.00;;;20.00;99.90;;;;;;4969839;28;20293;-71
2021/06/29 09:03:54;;;;;;;0.00;0.00;;;20.30;99.90;;;;;;4969675;28;20285;-72
2021/06/29 09:06:30;;;;;;;3.22;1.30;;;20.50;99.90;;;;;;4966850;28;20212;-70
2021/06/29 09:08:57;;;;;;;0.08;0.08;;;20.70;99.90;;;;;;4971255;28;20563;-73
2021/06/29 09:11:24;;;;;;;0.32;0.32;;;21.00;99.90;;;;;;4967666;28;21054;-70
2021/06/29 09:14:06;;;;;;;0.00;0.00;;;21.00;99.90;;;;;;4969456;28;20734;-70
2021/06/29 09:16:33;;;;;;;0.00;0.00;;;20.90;99.90;;;;;;4960266;28;20207;-71
2021/06/29 09:19:01;;;;;;;0.00;0.00;;;20.80;99.90;;;;;;4958101;28;20206;-73
2021/06/29 09:21:35;;;;;;;0.05;0.05;;;20.70;99.90;;;;;;4955876;28;20211;-70
2021/06/29 09:24:02;;;;;;;0.00;0.00;;;20.50;99.90;;;;;;4969079;28;20272;-71
2021/06/29 09:26:29;;;;;;;0.10;0.10;;;20.50;99.90;;;;;;4972121;28;20615;-71
2021/06/29 09:28:58;;;;;;;0.00;0.00;;;20.40;99.90;;;;;;4978199;28;20206;-72
2021/06/29 09:31:27;;;;;;;0.00;0.00;;;20.30;99.90;;;;;;4968925;28;20241;-74
2021/06/29 09:33:56;;;;;;;0.00;0.00;;;20.20;99.90;;;;;;4968997;28;20577;-74
2021/06/29 09:36:27;;;;;;;0.00;0.00;;;20.10;99.90;;;;;;4959055;28;20210;-70
2021/06/29 09:38:55;;;;;;;0.22;0.22;;;20.00;99.90;;;;;;4963082;28;20537;-70
2021/06/29 09:41:24;;;;;;;0.00;0.00;;;19.80;99.90;;;;;;4958096;28;20203;-68
2021/06/29 09:43:54;;;;;;;0.00;0.00;;;19.80;99.90;;;;;;4961560;28;20265;-73
2021/06/29 09:46:22;;;;;;;1.77;1.40;;;19.70;99.90;;;;;;4967403;28;20202;-72
2021/06/29 09:48:52;;;;;;;0.00;0.00;;;19.60;99.90;;;;;;4959336;28;20214;-71
2021/06/29 09:51:22;;;;;;;10.88;5.65;;;19.40;99.90;;;;;;4960406;28;20319;-74
2021/06/29 09:53:52;;;;;;;2.95;2.75;;;19.30;99.90;;;;;;4955631;28;20203;-67
2021/06/29 09:56:23;;;;;;;0.00;0.00;;;19.10;99.90;;;;;;4956331;28;20331;-70
2021/06/29 09:58:52;;;;;;;4.03;1.70;;;18.90;99.90;;;;;;4958519;28;20309;-69
2021/06/29 10:01:22;;;;;;;0.00;0.00;;;18.70;99.90;;;;;;4955355;28;20230;-71
2021/06/29 10:03:51;;;;;;;0.00;0.00;;;18.70;99.90;;;;;;4955371;28;20191;-67
2021/06/29 10:06:21;;;;;;;1.90;1.80;;;18.70;99.90;;;;;;4958229;28;20214;-82
2021/06/29 10:08:52;;;;;;;1.03;1.00;;;18.80;99.90;;;;;;4955832;28;20214;-68
2021/06/29 10:11:25;;;;;;;12.73;5.47;;;18.70;99.90;;;;;;4955364;28;20213;-66
2021/06/29 10:14:02;;;;;;;0.33;0.33;;;18.60;99.90;;;;;;4954375;28;20206;-67
2021/06/29 10:16:32;;;;;;;0.00;0.00;;;18.50;99.90;;;;;;4961962;28;20396;-68
2021/06/29 10:21:46;;;;;;;0.00;0.00;;;18.70;99.90;;;;;;4955426;28;20214;-68
2021/06/29 10:24:16;;;;;;;18.13;8.13;;;18.80;99.90;;;;;;4959235;28;20202;-71
2021/06/29 10:26:48;;;;;;;2.43;2.23;;;18.90;99.90;;;;;;4961285;28;20207;-69
2021/06/29 10:29:16;;;;;;;0.20;0.20;;;18.80;99.90;;;;;;4962317;28;20293;-68
2021/06/29 10:31:46;;;;;;;0.00;0.00;;;18.90;99.90;;;;;;4964465;28;20248;-68
2021/06/29 10:34:14;;;;;;;0.00;0.00;;;18.90;99.90;;;;;;4958565;28;20206;-68
2021/06/29 10:36:42;;;;;;;4.93;2.63;;;19.10;99.90;;;;;;4959137;28;20573;-67
2021/06/29 10:39:11;;;;;;;0.67;0.50;;;19.20;99.90;;;;;;4956356;28;20217;-67
2021/06/29 10:41:43;;;;;;;6.43;1.57;;;19.20;99.90;;;;;;4955832;28;20214;-69
2021/06/29 10:44:11;;;;;;;0.77;0.77;;;19.10;99.90;;;;;;4956175;28;20210;-72
2021/06/29 10:46:42;;;;;;;7.17;3.73;;;19.20;99.90;;;;;;4955144;28;20289;-72
2021/06/29 10:49:46;;;;;;;0.00;0.00;;;19.50;99.90;;;;;;4956559;28;20202;-68
2021/06/29 10:52:37;;;;;;;0.00;0.00;;;19.70;99.90;;;;;;4957553;28;20228;-71
2021/06/29 10:55:06;;;;;;;0.00;0.00;;;19.90;99.90;;;;;;4958620;28;20800;-67
2021/06/29 10:57:41;;;;;;;0.00;0.00;;;20.10;99.90;;;;;;4917015;29;20215;-69
2021/06/29 11:00:25;;;;;;;1.37;0.97;;;20.20;99.90;;;;;;4917350;29;20215;-73
2021/06/29 11:03:07;;;;;;;0.15;0.15;;;20.20;99.90;;;;;;4915705;29;20256;-68
2021/06/29 11:05:37;;;;;;;5.38;0.35;;;20.20;99.90;;;;;;4916662;29;20204;-69
2021/06/29 11:08:14;;;;;;;0.00;0.00;;;20.40;99.90;;;;;;4916359;29;20212;-68
2021/06/29 11:10:44;;;;;;;8.35;3.97;;;20.70;99.90;;;;;;4919480;29;20207;-68
2021/06/29 11:13:14;;;;;;;0.00;0.00;;;20.80;99.90;;;;;;4921917;29;20587;-70
2021/06/29 11:15:49;;;;;;;5.30;3.83;;;21.10;99.90;;;;;;4919029;29;20229;-69
2021/06/29 11:18:18;;;;;;;0.00;0.00;;;21.40;99.90;;;;;;4918181;29;20230;-70
2021/06/29 11:20:46;;;;;;;0.00;0.00;;;21.80;99.90;;;;;;4921685;29;20208;-68
2021/06/29 11:23:19;;;;;;;6.43;3.50;;;22.20;99.90;;;;;;4926419;29;20208;-67
2021/06/29 11:25:50;;;;;;;9.07;2.35;;;21.90;99.90;;;;;;4920387;29;20223;-68
2021/06/29 11:28:24;;;;;;;2.97;2.65;;;21.80;99.90;;;;;;4921669;29;20299;-70
2021/06/29 11:31:05;;;;;;;0.00;0.00;;;21.70;99.90;;;;;;4920882;29;20278;-68
2021/06/29 11:33:38;;;;;;;0.00;0.00;;;21.80;99.90;;;;;;4923654;29;20235;-68
2021/06/29 11:36:08;;;;;;;3.00;2.22;;;21.80;99.90;;;;;;4921556;29;20219;-69
2021/06/29 11:38:38;;;;;;;3.60;1.65;;;21.60;99.90;;;;;;4927218;29;21091;-68
2021/06/29 11:41:27;;;;;;;0.00;0.00;;;21.50;99.90;;;;;;4925794;29;20204;-68
2021/06/29 11:43:57;;;;;;;0.00;0.00;;;21.50;99.90;;;;;;4921913;29;20204;-68
2021/06/29 11:46:50;;;;;;;8.68;5.28;;;21.70;99.90;;;;;;4920523;29;20761;-70
2021/06/29 11:49:26;;;;;;;0.85;0.82;;;21.70;99.90;;;;;;4918651;29;20296;-69
2021/06/29 11:51:55;;;;;;;0.10;0.10;;;21.50;99.90;;;;;;4920950;29;20235;-68
2021/06/29 11:54:31;;;;;;;0.00;0.00;;;21.30;99.90;;;;;;4921508;29;20658;-69
2021/06/29 11:57:00;;;;;;;0.00;0.00;;;21.30;99.90;;;;;;4952860;28;20226;-67
2021/06/29 11:59:30;;;;;;;0.00;0.00;;;21.40;99.90;;;;;;4970900;28;20269;-68
2021/06/29 12:02:02;;;;;;;0.25;0.25;;;21.40;99.90;;;;;;4974617;28;20668;-69
2021/06/29 12:04:29;;;;;;;0.00;0.00;;;21.30;99.90;;;;;;4968160;28;20242;-68
2021/06/29 12:07:01;;;;;;;2.05;1.85;;;21.10;99.90;;;;;;4973933;28;20206;-68
2021/06/29 12:09:29;;;;;;;0.00;0.00;;;20.80;99.90;;;;;;4971388;28;20217;-67
2021/06/29 12:12:18;;;;;;;0.10;0.10;;;20.60;99.90;;;;;;4972693;28;20230;-68
2021/06/29 12:14:46;;;;;;;0.00;0.00;;;20.60;99.90;;;;;;4963317;28;20213;-68
2021/06/29 12:17:14;;;;;;;0.65;0.65;;;20.60;99.90;;;;;;4965637;28;20207;-67
2021/06/29 12:19:41;;;;;;;1.95;1.77;;;20.40;99.90;;;;;;4961578;28;20227;-70
2021/06/29 12:22:08;;;;;;;6.05;3.35;;;20.30;99.90;;;;;;4960826;28;20202;-68
2021/06/29 12:24:36;;;;;;;0.82;0.57;;;20.10;99.90;;;;;;4961374;28;20211;-67
2021/06/29 12:27:16;;;;;;;0.50;0.28;;;19.90;99.90;;;;;;4964802;28;20601;-67
2021/06/29 12:29:43;;;;;;;0.30;0.30;;;19.80;99.90;;;;;;4962121;28;20206;-67
2021/06/29 12:32:17;;;;;;;3.58;0.98;;;19.70;99.90;;;;;;4962179;28;20223;-68
2021/06/29 12:34:45;;;;;;;0.00;0.00;;;19.60;99.90;;;;;;4962055;28;20257;-67
2021/06/29 12:37:12;;;;;;;8.40;1.60;;;19.70;99.90;;;;;;4962163;28;20202;-68
2021/06/29 12:39:40;;;;;;;1.08;0.90;;;19.70;99.90;;;;;;4963028;28;20221;-67
2021/06/29 12:42:15;;;;;;;2.30;1.35;;;19.60;99.90;;;;;;4962140;28;20258;-69
2021/06/29 12:44:42;;;;;;;0.83;0.83;;;19.70;99.90;;;;;;4962193;28;20791;-68
2021/06/29 12:47:14;;;;;;;0.10;0.10;;;19.70;99.90;;;;;;4964470;28;20210;-69
2021/06/29 12:49:42;;;;;;;0.00;0.00;;;19.70;99.90;;;;;;4961984;28;20218;-67
2021/06/29 12:52:11;;;;;;;3.83;1.67;;;19.70;99.90;;;;;;4960091;28;20690;-67
2021/06/29 12:54:39;;;;;;;1.87;0.97;;;19.60;99.90;;;;;;4967955;28;20202;-70
2021/06/29 12:57:08;;;;;;;1.67;1.57;;;19.60;99.90;;;;;;4969980;28;20229;-67